createdAt,value
2022-10-13T00:04:32.541Z,33.40
2022-10-13T00:09:53.666Z,31.58
2022-10-13T00:15:06.033Z,34.25
2022-10-13T00:20:41.807Z,33.45
2022-10-13T00:25:47.922Z,31.48
2022-10-13T00:30:55.845Z,33.33
2022-10-13T00:36:00.945Z,30.67
2022-10-13T00:41:06.748Z,32.80
2022-10-13T00:46:14.505Z,32.85
2022-10-13T00:51:22.838Z,33.90
2022-10-13T00:56:29.549Z,34.85
2022-10-13T01:01:38.283Z,32.17
2022-10-13T01:06:44.012Z,35.05
2022-10-13T01:12:28.295Z,33.92
2022-10-13T01:17:57.142Z,32.55
2022-10-13T01:23:26.942Z,33.10
2022-10-13T01:28:52.701Z,37.75
2022-10-13T01:34:11.318Z,35.05
2022-10-13T01:39:26.415Z,33.72
2022-10-13T01:45:16.071Z,36.95
2022-10-13T01:50:24.168Z,38.67
2022-10-13T01:55:29.976Z,37.75
2022-10-13T02:00:40.302Z,36.70
2022-10-13T02:05:49.831Z,37.17
2022-10-13T02:11:00.502Z,33.72
2022-10-13T02:16:08.917Z,39.08
2022-10-13T02:21:16.945Z,35.92
2022-10-13T02:26:28.816Z,38.60
2022-10-13T02:31:34.311Z,36.17
2022-10-13T02:36:43.790Z,36.50
2022-10-13T02:41:49.013Z,36.42
2022-10-13T02:46:54.281Z,33.60
2022-10-13T02:52:02.549Z,35.53
2022-10-13T03:03:54.100Z,33.33
2022-10-13T03:14:43.813Z,38.28
2022-10-13T03:19:58.637Z,40.78
2022-10-13T03:25:07.463Z,38.83
2022-10-13T03:30:14.290Z,38.20
2022-10-13T03:35:19.837Z,40.25
2022-10-13T03:41:15.419Z,39.38
2022-10-13T03:46:23.185Z,41.92
2022-10-13T03:51:41.252Z,39.28
2022-10-13T03:56:49.246Z,40.60
2022-10-13T04:02:05.424Z,44.25
2022-10-13T04:07:30.113Z,41.50
2022-10-13T04:12:48.207Z,41.38
2022-10-13T04:18:00.753Z,47.60
2022-10-13T04:23:16.125Z,41.72
2022-10-13T04:28:30.694Z,41.53
2022-10-13T04:34:31.641Z,40.65
2022-10-13T04:46:17.310Z,39.55
2022-10-13T04:56:52.873Z,49.65
2022-10-13T05:02:00.951Z,40.72
2022-10-13T05:07:33.160Z,43.33
2022-10-13T05:12:41.113Z,42.67
2022-10-13T05:18:06.834Z,44.15
2022-10-13T05:23:24.767Z,42.92
2022-10-13T05:28:57.211Z,44.38
2022-10-13T05:34:51.636Z,46.22
2022-10-13T05:45:26.204Z,43.00
2022-10-13T05:50:43.404Z,50.17
2022-10-13T05:55:48.676Z,47.20
2022-10-13T06:07:56.370Z,45.75
2022-10-13T06:13:07.079Z,40.45
2022-10-13T11:10:47.398Z,15.45
2022-10-13T11:16:28.945Z,15.25
2022-10-13T11:33:44.994Z,16.40
2022-10-13T12:35:31.446Z,12.70
2022-10-13T12:47:10.523Z,15.82
2022-10-13T12:52:34.657Z,14.55
2022-10-13T12:57:43.677Z,14.65
2022-10-13T13:03:27.144Z,14.23
2022-10-13T13:08:45.764Z,14.85
2022-10-13T13:14:01.969Z,13.30
2022-10-13T13:19:58.355Z,13.73
2022-10-13T13:25:27.262Z,12.05
2022-10-13T13:30:42.796Z,14.13
2022-10-13T13:36:13.202Z,13.07
2022-10-13T13:41:37.342Z,11.52
2022-10-13T13:47:19.389Z,14.02
2022-10-13T13:52:37.079Z,11.60
2022-10-13T13:58:09.717Z,17.55
2022-10-13T14:03:19.770Z,12.70
2022-10-13T14:08:52.447Z,14.02
2022-10-13T14:14:17.817Z,13.65
2022-10-13T14:19:29.150Z,10.98
2022-10-13T14:24:41.343Z,16.70
2022-10-13T14:30:03.085Z,11.93
2022-10-13T14:35:30.880Z,18.10
2022-10-13T14:41:06.023Z,12.23
2022-10-13T14:46:22.522Z,14.80
2022-10-13T14:51:44.752Z,15.68
2022-10-13T14:57:05.158Z,19.13
2022-10-13T15:02:25.441Z,18.13
2022-10-13T15:07:45.584Z,13.77
2022-10-13T15:13:03.113Z,14.52
2022-10-13T15:18:30.983Z,16.70
2022-10-13T15:23:52.897Z,14.93
2022-10-13T15:29:34.797Z,18.58
2022-10-13T15:34:51.397Z,14.40
2022-10-13T15:40:22.039Z,16.48
2022-10-13T15:45:32.890Z,12.95
2022-10-13T15:50:58.748Z,14.50
2022-10-13T15:56:09.839Z,28.10
2022-10-13T16:01:27.870Z,27.35
2022-10-13T16:07:06.122Z,25.13
2022-10-13T16:12:21.301Z,24.23
2022-10-13T16:17:42.967Z,41.75
2022-10-13T16:22:50.654Z,172.48
2022-10-13T16:28:58.719Z,179.82
2022-10-13T16:33:54.557Z,167.88
2022-10-13T16:39:08.967Z,101.82
2022-10-13T16:44:14.085Z,167.55
2022-10-13T16:49:19.601Z,78.80
2022-10-13T16:54:27.505Z,76.20
2022-10-13T16:59:33.227Z,76.68
2022-10-13T17:04:41.504Z,59.97
2022-10-13T17:09:50.234Z,52.92
2022-10-13T17:15:00.798Z,51.63
2022-10-13T17:20:06.166Z,45.95
2022-10-13T17:25:14.422Z,40.72
2022-10-13T17:30:19.683Z,41.17
2022-10-13T17:35:24.847Z,40.72
2022-10-13T17:40:33.629Z,34.50
2022-10-13T17:45:38.907Z,34.42
2022-10-13T17:50:44.071Z,34.97
2022-10-13T17:55:51.944Z,33.45
2022-10-13T18:01:13.251Z,30.05
2022-10-13T18:06:37.871Z,27.45
2022-10-13T18:11:52.697Z,24.77
2022-10-13T18:16:59.882Z,25.88
2022-10-13T18:22:06.946Z,22.48
2022-10-13T18:27:14.783Z,25.17
2022-10-13T18:32:25.015Z,21.17
2022-10-13T18:37:33.207Z,25.65
2022-10-13T18:43:24.752Z,27.38
2022-10-13T18:49:36.622Z,22.10
2022-10-13T18:54:43.415Z,28.80
2022-10-13T19:00:00.145Z,24.17
2022-10-13T19:05:13.293Z,23.58
2022-10-13T19:10:20.610Z,38.13
2022-10-13T19:15:42.281Z,23.63
2022-10-13T19:20:54.952Z,35.10
2022-10-13T19:26:16.715Z,25.55
2022-10-13T19:31:35.384Z,27.48
2022-10-13T19:36:50.015Z,24.23
2022-10-13T19:41:57.141Z,24.23
2022-10-13T19:47:05.303Z,27.55
2022-10-13T19:52:10.526Z,28.33
2022-10-13T19:57:15.756Z,23.55
2022-10-13T20:02:23.679Z,24.50
2022-10-13T20:07:29.396Z,25.45
2022-10-13T20:12:41.413Z,24.52
2022-10-13T20:17:49.452Z,23.58
2022-10-13T20:22:56.562Z,23.30
2022-10-13T20:28:09.184Z,22.92
2022-10-13T20:33:16.888Z,28.42
2022-10-13T20:38:25.169Z,25.88
2022-10-13T20:43:30.258Z,30.85
2022-10-13T20:49:08.908Z,24.85
2022-10-13T20:54:04.700Z,20.63
2022-10-13T20:59:11.631Z,23.05
2022-10-13T21:04:19.289Z,22.48
2022-10-13T21:09:24.384Z,19.80
2022-10-13T21:14:29.923Z,20.83
2022-10-13T21:19:37.691Z,20.40
2022-10-13T21:24:42.675Z,22.92
2022-10-13T21:29:47.799Z,22.38
2022-10-13T21:34:56.453Z,22.75
2022-10-13T21:40:01.608Z,25.10
2022-10-13T21:45:11.509Z,25.00
2022-10-13T21:50:25.289Z,27.13
2022-10-13T21:55:31.746Z,22.23
2022-10-13T22:00:41.488Z,22.38
2022-10-13T22:06:05.949Z,26.77
2022-10-13T22:11:13.451Z,28.08
2022-10-13T22:16:35.825Z,23.75
2022-10-13T22:22:50.109Z,22.67
2022-10-13T22:28:16.851Z,23.98
2022-10-13T22:33:58.770Z,23.92
2022-10-13T22:39:39.906Z,23.70
2022-10-13T22:45:36.889Z,20.50
2022-10-13T22:56:39.938Z,21.88
2022-10-13T23:01:47.649Z,24.08
2022-10-13T23:06:54.129Z,22.17
2022-10-13T23:12:06.751Z,24.35
2022-10-13T23:17:11.915Z,25.27
2022-10-13T23:22:17.183Z,22.83
2022-10-13T23:27:27.369Z,27.35
2022-10-13T23:32:56.505Z,28.70
2022-10-13T23:38:01.789Z,25.23
2022-10-13T23:43:13.471Z,25.13
2022-10-13T23:48:26.018Z,25.20
2022-10-13T23:53:31.248Z,27.63
2022-10-13T23:58:40.826Z,26.85
